Time;durP1;ratioP1;P1;durP2;ratioP2;P2;SDS_P1;SDS_P2;PMS_P1;PMS_P2;Temp;Humidity;BMP_temperature;BMP_pressure;BME280_temperature;BME280_humidity;BME280_pressure;Samples;Min_cycle;Max_cycle;Signal;HPM_P1;HPM_P2
2021/10/29 00:04:18;;;;;;;100.12;52.35;;;;;;;2.73;81.45;99628.43;4278038;80;21095;-82
2021/10/29 00:10:51;;;;;;;;;;;;;;;;;;;;;
2021/10/29 00:16:54;;;;;;;99.15;53.90;;;;;;;2.59;81.50;99627.70;4237944;81;21582;-81
2021/10/29 00:23:06;;;;;;;88.78;48.10;;;;;;;2.67;81.58;99626.97;4200803;83;21619;-82
2021/10/29 00:29:12;;;;;;;90.00;50.08;;;;;;;2.50;81.44;99630.36;4201553;83;21115;-82
2021/10/29 00:35:24;;;;;;;86.17;48.08;;;;;;;2.29;81.44;99630.56;4219500;81;21074;-81
2021/10/29 00:41:33;;;;;;;90.83;47.35;;;;;;;2.34;81.86;99622.89;4209228;82;21039;-82
2021/10/29 00:47:53;;;;;;;;;;;;;;;;;;;;;
2021/10/29 01:00:50;;;;;;;94.47;48.02;;;;;;;2.20;82.03;99613.49;4143644;82;21067;-82
2021/10/29 01:07:00;;;;;;;88.95;47.20;;;;;;;2.12;81.78;99612.05;4198663;82;21114;-83
2021/10/29 01:13:06;;;;;;;88.58;46.95;;;;;;;1.92;81.80;99598.47;4220951;82;21058;-82
2021/10/29 01:19:10;;;;;;;92.75;49.67;;;;;;;1.80;81.98;99596.85;4221206;82;21030;-83
2021/10/29 01:25:13;;;;;;;81.17;41.23;;;;;;;1.72;82.37;99588.66;4228026;81;21571;-83
2021/10/29 01:31:17;;;;;;;86.08;45.10;;;;;;;1.78;83.13;99580.16;4222046;82;20980;-82
2021/10/29 01:37:19;;;;;;;80.03;42.60;;;;;;;1.88;82.54;99581.27;4207828;82;21686;-81
2021/10/29 01:43:20;;;;;;;86.40;42.62;;;;;;;1.75;82.87;99572.66;4203557;83;21047;-80
2021/10/29 01:49:22;;;;;;;82.65;41.02;;;;;;;1.88;82.74;99567.77;4220440;83;21562;-82
2021/10/29 01:55:23;;;;;;;114.37;59.23;;;;;;;2.09;83.19;99562.70;4196888;83;21067;-82
2021/10/29 02:01:26;;;;;;;84.40;44.03;;;;;;;1.87;82.33;99559.42;4213359;83;21019;-82
2021/10/29 02:07:28;;;;;;;81.08;42.48;;;;;;;1.72;83.03;99550.33;4229162;82;21011;-82
2021/10/29 02:13:30;;;;;;;93.27;47.53;;;;;;;1.68;83.19;99556.64;4232510;82;20989;-81
2021/10/29 02:19:31;;;;;;;83.50;46.98;;;;;;;1.63;83.57;99547.53;4223726;82;21019;-82
2021/10/29 02:25:33;;;;;;;80.80;43.45;;;;;;;1.89;83.34;99540.22;4168452;83;21024;-82
2021/10/29 02:31:35;;;;;;;96.20;47.15;;;;;;;1.74;82.87;99542.70;4225323;82;21052;-81
2021/10/29 02:37:37;;;;;;;108.30;48.63;;;;;;;1.63;83.34;99536.73;4216820;82;21016;-82
2021/10/29 02:43:45;;;;;;;119.80;49.98;;;;;;;1.59;83.77;99530.36;4248279;82;21030;-83
2021/10/29 02:49:47;;;;;;;137.07;58.58;;;;;;;1.49;83.23;99523.83;4225938;82;20995;-82
2021/10/29 02:55:49;;;;;;;127.17;59.65;;;;;;;1.41;83.88;99521.84;4223459;82;21574;-83
2021/10/29 03:01:56;;;;;;;137.50;56.10;;;;;;;1.37;84.02;99528.14;4198243;83;21106;-81
2021/10/29 03:07:59;;;;;;;148.65;60.38;;;;;;;1.36;84.27;99520.59;4230188;82;21035;-83
2021/10/29 03:14:05;;;;;;;164.93;64.32;;;;;;;1.47;84.77;99526.59;4246417;82;21073;-82
2021/10/29 03:20:29;;;;;;;142.30;62.30;;;;;;;1.56;84.40;99526.92;4231012;82;21091;-83
2021/10/29 03:26:25;;;;;;;135.25;62.85;;;;;;;1.52;84.47;99522.41;4221690;81;21095;-83
2021/10/29 03:32:26;;;;;;;128.75;58.68;;;;;;;1.40;84.15;99512.70;4209615;83;21048;-82
2021/10/29 03:38:42;;;;;;;129.70;57.48;;;;;;;1.22;84.24;99518.45;4189048;83;21045;-82
2021/10/29 03:50:59;;;;;;;155.30;69.62;;;;;;;1.23;85.09;99518.72;4164842;83;21584;-82
2021/10/29 04:03:05;;;;;;;135.35;62.95;;;;;;;1.16;84.91;99513.49;4232333;81;21595;-81
2021/10/29 04:09:07;;;;;;;128.47;62.83;;;;;;;1.00;85.06;99514.89;4228998;83;21564;-81
2021/10/29 04:15:09;;;;;;;129.78;62.50;;;;;;;1.08;85.32;99516.89;4239376;81;21096;-81
2021/10/29 04:21:11;;;;;;;123.02;62.93;;;;;;;1.12;85.61;99506.55;4238681;81;20994;-82
2021/10/29 04:27:20;;;;;;;117.65;58.05;;;;;;;1.34;85.26;99511.21;4238408;83;21591;-83
2021/10/29 04:33:16;;;;;;;138.62;62.73;;;;;;;1.16;85.19;99513.49;4249059;78;49726;-82
2021/10/29 04:39:31;;;;;;;126.55;59.40;;;;;;;1.13;85.00;99516.22;4435585;78;21031;-81
2021/10/29 04:45:41;;;;;;;114.62;54.50;;;;;;;1.06;85.00;99518.53;4421560;79;21005;-83
2021/10/29 04:51:44;;;;;;;128.50;57.70;;;;;;;1.00;85.35;99508.15;4414973;79;20997;-83
2021/10/29 04:57:45;;;;;;;128.72;55.45;;;;;;;1.07;85.11;99507.18;4421495;79;21064;-82
2021/10/29 05:03:47;;;;;;;173.90;69.42;;;;;;;1.30;86.13;99506.19;4408858;79;21928;-81
2021/10/29 05:09:48;;;;;;;159.67;69.80;;;;;;;1.49;85.87;99504.13;4429144;79;21028;-82
2021/10/29 05:15:49;;;;;;;153.23;65.97;;;;;;;1.49;85.18;99500.89;4432346;79;21019;-83
2021/10/29 05:21:50;;;;;;;146.93;64.47;;;;;;;1.29;85.53;99496.48;4423965;79;20954;-81
2021/10/29 05:27:52;;;;;;;149.60;64.95;;;;;;;1.33;85.76;99499.61;4421598;79;21520;-82
2021/10/29 05:33:53;;;;;;;145.47;62.30;;;;;;;1.21;84.98;99502.58;4428219;79;21069;-82
2021/10/29 05:39:59;;;;;;;143.80;64.17;;;;;;;1.08;85.33;99505.53;4373605;79;21055;-82
2021/10/29 05:46:00;;;;;;;145.20;65.85;;;;;;;1.12;85.44;99502.50;4353580;80;20987;-84
2021/10/29 05:52:03;;;;;;;151.82;63.85;;;;;;;0.91;85.44;99502.64;4355378;80;21015;-82
2021/10/29 05:58:04;;;;;;;138.45;59.30;;;;;;;1.19;86.26;99510.19;4361581;80;20984;-83
2021/10/29 06:04:06;;;;;;;135.25;61.08;;;;;;;1.41;86.18;99507.00;4355589;80;20991;-83
2021/10/29 06:10:13;;;;;;;157.07;67.87;;;;;;;1.52;85.96;99511.62;4360405;80;21463;-83
2021/10/29 06:16:13;;;;;;;147.57;67.60;;;;;;;1.41;85.54;99517.79;4355766;80;20998;-84
2021/10/29 06:28:28;;;;;;;124.90;58.08;;;;;;;1.57;86.00;99516.91;4355311;80;21499;-85
2021/10/29 06:34:34;;;;;;;132.65;60.85;;;;;;;1.68;86.46;99521.55;4365758;80;21495;-83
2021/10/29 06:40:45;;;;;;;179.40;85.60;;;;;;;1.79;86.05;99526.94;4400334;79;21005;-81
2021/10/29 06:59:34;;;;;;;162.53;73.70;;;;;;;2.08;86.37;99553.02;4414761;79;21587;-83
2021/10/29 07:43:13;;;;;;;130.52;69.12;;;;;;;4.07;86.29;99546.44;4420946;79;21657;-82
2021/10/29 07:49:14;;;;;;;131.63;68.90;;;;;;;4.44;86.22;99542.52;4415167;79;21525;-82
2021/10/29 07:55:20;;;;;;;124.45;66.87;;;;;;;4.88;86.11;99523.66;4415792;79;21347;-83
2021/10/29 08:01:23;;;;;;;108.42;61.37;;;;;;;5.55;86.51;99542.66;4413339;79;21030;-82
2021/10/29 08:07:27;;;;;;;104.97;59.00;;;;;;;6.06;85.82;99542.36;4413105;79;21921;-83
2021/10/29 08:13:28;;;;;;;106.80;58.92;;;;;;;6.82;86.06;99537.30;4411727;79;20968;-82
2021/10/29 08:19:36;;;;;;;93.30;59.27;;;;;;;7.65;85.71;99529.77;4407493;79;20988;-83
2021/10/29 08:25:39;;;;;;;91.67;56.77;;;;;;;8.46;85.06;99529.44;4411316;79;21011;-82
2021/10/29 08:31:40;;;;;;;96.10;59.03;;;;;;;9.03;84.63;99523.00;4413429;79;21495;-83
2021/10/29 08:37:50;;;;;;;85.95;56.45;;;;;;;9.94;84.15;99524.94;4413370;79;21057;-83
2021/10/29 08:43:56;;;;;;;82.00;52.67;;;;;;;10.76;83.51;99521.57;4410757;79;20947;-83
2021/10/29 08:50:00;;;;;;;87.35;52.98;;;;;;;11.58;82.39;99516.31;4413784;79;21025;-84
2021/10/29 08:56:04;;;;;;;86.50;53.85;;;;;;;12.21;81.71;99521.94;4388093;79;20983;-82
2021/10/29 09:02:14;;;;;;;69.60;46.35;;;;;;;13.07;80.68;99512.34;4400133;79;21506;-82
2021/10/29 09:33:48;;;;;;;51.68;34.40;;;;;;;16.09;75.35;99505.09;4412042;79;21107;-83
2021/10/29 09:39:54;;;;;;;53.10;34.38;;;;;;;16.67;73.49;99508.63;4426671;78;21021;-84
2021/10/29 09:46:03;;;;;;;52.03;34.08;;;;;;;16.88;71.92;99497.47;4444787;78;20999;-85
2021/10/29 09:58:17;;;;;;;48.92;34.27;;;;;;;17.35;69.91;99495.34;4439558;78;21014;-84
2021/10/29 10:04:23;;;;;;;53.00;35.60;;;;;;;17.86;67.96;99492.52;4430460;78;21506;-85
2021/10/29 10:10:26;;;;;;;52.80;36.45;;;;;;;18.30;66.28;99495.20;4430895;78;21033;-84
2021/10/29 10:16:29;;;;;;;52.50;36.45;;;;;;;18.55;65.98;99476.30;4447986;78;21485;-86
2021/10/29 10:22:38;;;;;;;56.45;34.03;;;;;;;18.65;65.62;99483.66;4448884;78;21021;-85
2021/10/29 10:47:37;;;;;;;41.02;27.95;;;;;;;18.11;61.33;99465.33;4444288;78;20962;-84
2021/10/29 10:53:43;;;;;;;45.30;28.30;;;;;;;17.89;59.90;99452.13;4458058;77;21026;-84
2021/10/29 11:13:17;;;;;;;46.40;31.23;;;;;;;17.89;58.15;99442.43;4446594;78;21038;-85
2021/10/29 11:19:25;;;;;;;47.50;28.98;;;;;;;17.88;57.55;99438.10;4473577;77;21032;-82
2021/10/29 11:25:27;;;;;;;52.78;31.23;;;;;;;17.72;54.73;99435.90;4449841;78;21039;-85
2021/10/29 11:31:34;;;;;;;50.65;30.08;;;;;;;17.58;55.53;99426.36;4448438;78;21541;-83
2021/10/29 11:37:37;;;;;;;;;;;;;;;17.13;55.04;99413.72;4461860;77;21529;-84
2021/10/29 11:43:41;;;;;;;33.15;20.95;;;;;;;16.87;55.49;99403.24;4418382;79;20272;-84
2021/10/29 11:49:42;;;;;;;30.17;20.15;;;;;;;16.83;55.13;99404.67;4414399;79;21387;-84
2021/10/29 11:56:00;;;;;;;29.82;20.12;;;;;;;16.74;54.28;99402.17;4418550;79;21027;-82
2021/10/29 12:05:50;;;;;;;27.17;18.50;;;;;;;16.65;54.44;99392.14;4416148;79;21531;-84
2021/10/29 12:08:11;;;;;;;30.77;18.62;;;;;;;16.62;54.65;99384.66;4404833;79;20983;-84
2021/10/29 12:14:13;;;;;;;27.05;17.98;;;;;;;16.68;54.20;99374.75;4417945;79;21035;-85
2021/10/29 12:20:43;;;;;;;25.40;17.50;;;;;;;16.65;53.73;99376.95;4414568;79;21077;-82
2021/10/29 12:26:43;;;;;;;29.40;17.73;;;;;;;16.64;53.59;99368.47;4417580;79;21293;-84
2021/10/29 12:47:39;;;;;;;30.80;20.97;;;;;;;16.66;53.61;99355.80;4416871;78;21868;-83
2021/10/29 12:52:12;;;;;;;34.60;22.90;;;;;;;16.76;53.07;99345.86;4395810;79;21062;-84
2021/10/29 13:35:39;;;;;;;33.25;18.67;;;;;;;16.85;53.16;99319.31;4134208;82;21012;-83
2021/10/29 14:32:44;;;;;;;27.42;15.55;;;;;;;15.68;54.49;99282.44;3995359;86;21065;-84
2021/10/29 14:39:03;;;;;;;30.00;15.03;;;;;;;15.54;54.57;99278.55;3972636;87;21182;-84
2021/10/29 15:04:44;;;;;;;20.30;12.70;;;;;;;14.72;55.87;99279.73;3978370;86;21069;-83
2021/10/29 15:16:44;;;;;;;31.65;14.55;;;;;;;14.09;56.93;99277.71;3882158;85;37058;-83
2021/10/29 15:29:12;;;;;;;24.10;13.03;;;;;;;13.46;58.26;99285.77;3931122;88;21159;-84
2021/10/29 15:53:35;;;;;;;37.08;17.00;;;;;;;11.86;60.68;99269.87;4040201;85;21071;-83
2021/10/29 15:59:57;;;;;;;40.70;22.02;;;;;;;11.55;61.67;99267.55;4079255;85;21609;-83
2021/10/29 16:18:28;;;;;;;48.45;26.73;;;;;;;10.78;63.28;99277.49;4083407;85;21083;-82
2021/10/29 16:24:29;;;;;;;49.30;26.40;;;;;;;10.48;63.89;99272.52;4044594;86;21096;-83
2021/10/29 16:30:35;;;;;;;48.05;25.20;;;;;;;10.26;64.20;99274.70;4018833;86;21037;-83
2021/10/29 16:36:37;;;;;;;43.17;26.68;;;;;;;10.00;64.87;99271.31;4013192;86;21570;-83
2021/10/29 16:42:38;;;;;;;50.55;29.82;;;;;;;9.79;65.46;99280.48;4084185;85;21228;-83
2021/10/29 16:48:40;;;;;;;72.37;39.65;;;;;;;9.57;65.97;99275.00;4080739;85;21587;-83
2021/10/29 16:54:41;;;;;;;55.75;33.30;;;;;;;9.31;66.80;99284.64;3968521;85;10000256;-83
2021/10/29 17:00:44;;;;;;;65.85;36.45;;;;;;;9.09;66.68;99280.45;4075499;85;21036;-83
2021/10/29 17:06:45;;;;;;;60.08;34.08;;;;;;;8.80;67.68;99273.57;4084293;85;21010;-83
2021/10/29 17:12:48;;;;;;;52.75;30.40;;;;;;;8.73;67.86;99284.91;4037140;86;21054;-83
2021/10/29 17:18:49;;;;;;;57.75;31.97;;;;;;;8.50;68.69;99291.61;4044704;86;21758;-83
2021/10/29 17:24:51;;;;;;;73.45;38.80;;;;;;;8.30;68.35;99293.25;4032104;86;21104;-82
2021/10/29 17:30:53;;;;;;;71.10;43.05;;;;;;;7.86;69.04;99290.53;4040024;86;21031;-81
2021/10/29 17:36:54;;;;;;;80.60;45.70;;;;;;;7.69;69.60;99292.78;4048561;86;21247;-81
2021/10/29 17:42:55;;;;;;;76.25;40.48;;;;;;;7.55;70.39;99289.67;4046086;86;21551;-82
2021/10/29 17:48:59;;;;;;;78.15;42.50;;;;;;;7.31;70.33;99289.20;3993639;86;21071;-82
2021/10/29 17:55:01;;;;;;;79.20;41.15;;;;;;;7.16;71.07;99281.77;4026112;87;21127;-82
2021/10/29 18:01:04;;;;;;;81.97;41.15;;;;;;;7.06;71.47;99282.27;3995746;87;21139;-82
2021/10/29 18:07:07;;;;;;;94.13;50.48;;;;;;;6.99;72.08;99277.16;4002189;87;21106;-82
2021/10/29 18:13:21;;;;;;;65.00;35.90;;;;;;;6.85;71.82;99274.02;4008933;87;21636;-82
2021/10/29 18:19:22;;;;;;;72.62;39.58;;;;;;;6.72;73.08;99271.89;3999129;87;21055;-83
2021/10/29 18:25:23;;;;;;;83.62;45.17;;;;;;;6.66;73.18;99274.63;3994942;86;21067;-83
2021/10/29 18:31:26;;;;;;;92.90;48.23;;;;;;;6.58;73.10;99272.81;4011980;86;21714;-83
2021/10/29 18:37:31;;;;;;;83.30;43.28;;;;;;;6.28;72.81;99275.54;4015025;87;21965;-82
2021/10/29 18:43:33;;;;;;;97.15;47.80;;;;;;;6.27;74.40;99276.69;4021310;87;21504;-82
2021/10/29 18:49:39;;;;;;;104.12;52.25;;;;;;;6.25;74.51;99283.82;3985382;87;21151;-83
2021/10/29 18:55:43;;;;;;;99.03;53.28;;;;;;;6.06;73.86;99284.94;4012789;87;21670;-82
2021/10/29 19:01:45;;;;;;;120.35;62.53;;;;;;;6.02;74.58;99292.19;4006479;87;21064;-82
2021/10/29 19:07:50;;;;;;;122.28;61.48;;;;;;;5.91;74.66;99286.16;3995276;87;21068;-82
2021/10/29 19:13:50;;;;;;;151.05;72.62;;;;;;;5.80;74.23;99294.48;3996290;87;21638;-82
2021/10/29 19:19:52;;;;;;;149.25;72.30;;;;;;;5.58;74.38;99282.64;4036258;86;22172;-82
2021/10/29 19:25:53;;;;;;;153.42;73.95;;;;;;;5.29;74.78;99300.41;4043588;86;21013;-83
2021/10/29 19:31:54;;;;;;;145.20;70.67;;;;;;;5.22;75.37;99294.72;3950715;88;21019;-82
2021/10/29 19:38:12;;;;;;;128.42;67.37;;;;;;;5.07;75.71;99298.84;3963764;88;21130;-82
2021/10/29 19:44:06;;;;;;;122.78;64.12;;;;;;;5.00;75.52;99305.34;3951031;88;21082;-82
2021/10/29 19:50:07;;;;;;;130.47;66.50;;;;;;;4.92;76.00;99308.91;4044343;85;21092;-82
2021/10/29 19:56:10;;;;;;;149.27;74.20;;;;;;;4.93;76.22;99310.52;4054812;86;21064;-82
2021/10/29 20:02:12;;;;;;;154.50;78.75;;;;;;;4.75;75.90;99311.74;4018488;86;21059;-83
2021/10/29 20:08:13;;;;;;;126.22;65.55;;;;;;;4.68;76.44;99302.00;4031738;86;21108;-82
2021/10/29 20:14:16;;;;;;;132.40;68.90;;;;;;;4.56;77.38;99310.02;4030075;86;21177;-82
2021/10/29 20:20:17;;;;;;;140.15;71.67;;;;;;;4.43;77.27;99308.36;4069087;86;21076;-82
2021/10/29 20:26:18;;;;;;;174.23;88.90;;;;;;;4.46;78.30;99315.83;4026076;86;22332;-82
2021/10/29 20:32:20;;;;;;;142.03;70.85;;;;;;;4.44;77.71;99313.45;4062403;86;21097;-82
2021/10/29 20:38:22;;;;;;;168.93;88.07;;;;;;;4.37;77.49;99305.59;4074873;86;21152;-82
2021/10/29 20:44:23;;;;;;;166.32;87.42;;;;;;;4.19;78.02;99304.07;4025897;87;21327;-82
2021/10/29 20:50:29;;;;;;;166.05;81.20;;;;;;;4.21;77.88;99310.74;3955891;88;21115;-83
2021/10/29 20:56:31;;;;;;;136.43;70.05;;;;;;;4.16;77.77;99310.14;4042687;85;21041;-82
2021/10/29 21:02:33;;;;;;;206.32;107.25;;;;;;;3.85;78.07;99323.96;4031550;86;21064;-81
2021/10/29 21:08:35;;;;;;;162.55;83.58;;;;;;;3.78;82.00;99303.89;4007342;86;21051;-81
2021/10/29 21:14:36;;;;;;;180.35;91.20;;;;;;;3.57;79.39;99317.30;3936593;89;21041;-81
2021/10/29 21:20:38;;;;;;;211.92;102.85;;;;;;;3.70;79.56;99321.75;4042209;87;21081;-83
2021/10/29 21:26:39;;;;;;;184.75;94.55;;;;;;;3.64;79.95;99322.23;4006276;86;21155;-82
2021/10/29 21:32:40;;;;;;;175.03;91.12;;;;;;;3.59;80.25;99327.81;4008168;86;21067;-82
2021/10/29 21:38:41;;;;;;;143.15;74.55;;;;;;;3.52;79.41;99311.27;4045564;86;21096;-82
2021/10/29 21:44:48;;;;;;;168.95;91.50;;;;;;;3.46;80.34;99324.74;4039305;86;21084;-81
2021/10/29 21:50:47;;;;;;;199.90;101.90;;;;;;;3.46;80.06;99323.39;4038547;85;21064;-82
2021/10/29 21:56:49;;;;;;;147.22;78.67;;;;;;;3.32;80.35;99324.12;4035532;86;21113;-82
2021/10/29 22:02:51;;;;;;;167.98;86.22;;;;;;;3.30;80.90;99329.05;4037135;86;21117;-82
2021/10/29 22:08:52;;;;;;;189.95;95.47;;;;;;;3.30;80.77;99323.08;3986631;86;21156;-81
2021/10/29 22:14:54;;;;;;;143.47;77.85;;;;;;;3.05;80.44;99317.89;4002278;87;21083;-81
2021/10/29 22:20:56;;;;;;;160.55;80.87;;;;;;;3.21;81.04;99310.13;4015149;87;21071;-82
2021/10/29 22:27:01;;;;;;;163.15;90.00;;;;;;;3.22;81.22;99309.00;4015182;87;21607;-82
2021/10/29 22:33:01;;;;;;;166.77;85.47;;;;;;;3.06;80.15;99317.34;4025355;86;21612;-81
2021/10/29 22:39:03;;;;;;;187.10;96.08;;;;;;;2.79;80.12;99324.39;4037147;86;21075;-83
2021/10/29 22:45:07;;;;;;;192.18;98.80;;;;;;;2.65;80.93;99316.97;4027478;86;21053;-82
2021/10/29 22:51:14;;;;;;;160.22;81.72;;;;;;;2.58;81.33;99306.64;4044314;86;21072;-82
2021/10/29 22:57:15;;;;;;;151.95;80.92;;;;;;;2.42;80.57;99311.44;4043125;86;21117;-82
2021/10/29 23:03:17;;;;;;;158.63;85.38;;;;;;;2.51;82.41;99312.24;4024382;86;21716;-82
2021/10/29 23:09:18;;;;;;;166.22;85.57;;;;;;;2.62;81.46;99313.00;4040538;86;21744;-82
2021/10/29 23:15:19;;;;;;;143.97;75.03;;;;;;;2.52;81.29;99317.34;4059672;86;21085;-82
2021/10/29 23:21:22;;;;;;;146.90;74.97;;;;;;;2.39;81.87;99319.62;4029122;86;21011;-81
2021/10/29 23:27:35;;;;;;;153.00;78.00;;;;;;;2.42;81.84;99318.19;4049283;85;21073;-83
2021/10/29 23:33:46;;;;;;;144.13;70.75;;;;;;;2.39;81.59;99314.77;4032691;86;21124;-82
2021/10/29 23:39:48;;;;;;;156.87;79.05;;;;;;;2.27;82.73;99318.05;3996453;86;21063;-82
2021/10/29 23:45:49;;;;;;;159.22;75.57;;;;;;;2.37;82.54;99314.27;3990104;87;21084;-81
2021/10/29 23:51:50;;;;;;;149.47;75.37;;;;;;;2.22;81.60;99297.95;3998271;87;21080;-82
2021/10/29 23:57:51;;;;;;;130.00;67.67;;;;;;;2.10;81.93;99295.61;3923268;89;21403;-82
